createdAt,value
2023-03-06T00:00:40.114Z,3.72
2023-03-06T00:03:07.939Z,3.79
2023-03-06T00:05:35.459Z,3.82
2023-03-06T00:08:03.837Z,3.82
2023-03-06T00:10:32.323Z,3.83
2023-03-06T00:13:05.876Z,3.81
2023-03-06T00:15:33.715Z,3.84
2023-03-06T00:18:04.294Z,3.85
2023-03-06T00:20:32.557Z,3.92
2023-03-06T00:23:02.086Z,3.86
2023-03-06T00:25:29.698Z,3.83
2023-03-06T00:27:57.493Z,3.85
2023-03-06T00:30:25.621Z,3.84
2023-03-06T00:32:53.620Z,3.79
2023-03-06T00:35:21.365Z,3.84
2023-03-06T00:37:49.302Z,3.86
2023-03-06T00:40:19.569Z,3.84
2023-03-06T00:42:48.008Z,3.86
2023-03-06T00:45:16.095Z,3.85
2023-03-06T00:47:43.828Z,3.79
2023-03-06T00:50:11.977Z,3.80
2023-03-06T00:52:41.996Z,3.84
2023-03-06T00:55:10.702Z,3.88
2023-03-06T00:57:38.302Z,3.83
2023-03-06T01:00:07.335Z,3.80
2023-03-06T01:02:35.187Z,3.78
2023-03-06T01:05:02.958Z,3.76
2023-03-06T01:07:34.136Z,3.75
2023-03-06T01:10:01.771Z,3.79
2023-03-06T01:12:29.370Z,3.80
2023-03-06T01:14:58.055Z,3.77
2023-03-06T01:17:25.737Z,3.72
2023-03-06T01:19:53.283Z,3.69
2023-03-06T01:22:21.175Z,3.71
2023-03-06T01:24:48.704Z,3.74
2023-03-06T01:27:16.317Z,3.68
2023-03-06T01:29:44.350Z,3.67
2023-03-06T01:32:11.953Z,3.63
2023-03-06T01:34:39.484Z,3.63
2023-03-06T01:37:07.263Z,3.72
2023-03-06T01:39:34.849Z,3.79
2023-03-06T01:42:02.579Z,3.83
2023-03-06T01:44:30.638Z,3.81
2023-03-06T01:46:58.247Z,3.71
2023-03-06T01:49:37.893Z,3.65
2023-03-06T01:52:12.092Z,3.60
2023-03-06T01:54:44.430Z,3.64
2023-03-06T01:57:20.008Z,3.60
2023-03-06T01:59:53.042Z,3.51
2023-03-06T02:02:21.094Z,3.57
2023-03-06T02:04:48.936Z,3.64
2023-03-06T02:07:19.506Z,3.69
2023-03-06T02:09:47.033Z,3.58
2023-03-06T02:12:19.075Z,3.50
2023-03-06T02:14:47.430Z,3.59
2023-03-06T02:17:17.527Z,3.65
2023-03-06T02:20:12.547Z,3.69
2023-03-06T02:22:59.779Z,3.52
2023-03-06T02:25:33.697Z,3.53
2023-03-06T02:28:01.907Z,3.62
2023-03-06T02:30:30.876Z,3.68
2023-03-06T02:32:58.839Z,3.59
2023-03-06T02:35:30.207Z,3.36
2023-03-06T02:37:59.624Z,3.45
2023-03-06T02:40:27.784Z,3.50
2023-03-06T02:42:57.812Z,3.47
2023-03-06T02:45:38.611Z,3.36
2023-03-06T02:48:07.167Z,3.42
2023-03-06T02:50:34.779Z,3.36
2023-03-06T02:53:02.323Z,3.31
2023-03-06T02:55:31.719Z,3.20
2023-03-06T02:58:00.331Z,3.15
2023-03-06T03:00:29.056Z,3.19
2023-03-06T03:02:56.945Z,3.18
2023-03-06T03:05:24.843Z,3.16
2023-03-06T03:07:53.242Z,3.14
2023-03-06T03:10:21.198Z,3.21
2023-03-06T03:12:49.206Z,3.25
2023-03-06T03:15:17.057Z,3.25
2023-03-06T03:17:44.924Z,3.21
2023-03-06T03:20:14.748Z,3.13
2023-03-06T03:22:42.454Z,3.20
2023-03-06T03:25:10.209Z,3.21
2023-03-06T03:27:37.780Z,3.25
2023-03-06T03:30:06.092Z,3.19
2023-03-06T03:32:34.122Z,3.27
2023-03-06T03:35:01.942Z,3.27
2023-03-06T03:37:30.922Z,3.36
2023-03-06T03:39:59.567Z,3.40
2023-03-06T03:42:27.208Z,3.41
2023-03-06T03:44:54.926Z,3.22
2023-03-06T03:47:23.004Z,3.09
2023-03-06T03:49:51.325Z,3.12
2023-03-06T03:52:19.687Z,3.04
2023-03-06T03:54:47.627Z,2.97
2023-03-06T03:57:15.151Z,3.04
2023-03-06T03:59:43.097Z,3.08
2023-03-06T04:02:11.674Z,3.08
2023-03-06T04:04:39.991Z,2.79
2023-03-06T04:07:08.229Z,2.70
2023-03-06T04:09:36.975Z,2.70
2023-03-06T04:12:05.640Z,2.56
2023-03-06T04:14:34.442Z,2.61
2023-03-06T04:17:02.237Z,2.58
2023-03-06T04:19:30.177Z,2.59
2023-03-06T04:21:58.469Z,2.65
2023-03-06T04:24:26.430Z,2.59
2023-03-06T04:26:54.322Z,2.62
2023-03-06T04:29:21.816Z,2.63
2023-03-06T04:31:49.947Z,2.65
2023-03-06T04:34:18.189Z,2.57
2023-03-06T04:36:46.292Z,2.44
2023-03-06T04:39:14.754Z,2.36
2023-03-06T04:41:42.989Z,2.36
2023-03-06T04:44:10.677Z,2.26
2023-03-06T04:46:38.208Z,2.31
2023-03-06T04:49:07.019Z,2.34
2023-03-06T04:51:36.892Z,2.34
2023-03-06T04:54:04.729Z,2.19
2023-03-06T04:56:34.487Z,2.04
2023-03-06T04:59:03.269Z,2.09
2023-03-06T05:01:30.854Z,2.07
2023-03-06T05:03:58.641Z,2.10
2023-03-06T05:06:26.224Z,2.03
2023-03-06T05:08:53.918Z,1.92
2023-03-06T05:11:21.737Z,1.99
2023-03-06T05:13:49.652Z,2.06
2023-03-06T05:16:17.619Z,2.05
2023-03-06T05:18:45.442Z,2.04
2023-03-06T05:21:13.417Z,2.07
2023-03-06T05:23:41.224Z,2.15
2023-03-06T05:26:10.602Z,2.20
2023-03-06T05:28:38.452Z,2.22
2023-03-06T05:31:07.333Z,2.28
2023-03-06T05:33:35.722Z,2.26
2023-03-06T05:36:03.986Z,2.10
2023-03-06T05:38:32.247Z,2.20
2023-03-06T05:41:00.200Z,2.17
2023-03-06T05:43:27.742Z,2.24
2023-03-06T05:46:03.212Z,2.26
2023-03-06T05:48:31.782Z,2.26
2023-03-06T05:51:00.387Z,2.35
2023-03-06T05:53:29.307Z,2.34
2023-03-06T05:55:57.688Z,2.37
2023-03-06T05:58:25.984Z,2.44
2023-03-06T06:00:53.948Z,2.50
2023-03-06T06:03:22.278Z,2.61
2023-03-06T06:05:50.297Z,2.71
2023-03-06T06:08:17.865Z,2.82
2023-03-06T06:10:45.679Z,3.29
2023-03-06T06:13:13.235Z,3.41
2023-03-06T06:15:40.778Z,3.98
2023-03-06T06:18:08.722Z,3.92
2023-03-06T06:20:37.562Z,3.87
2023-03-06T06:23:05.211Z,4.15
2023-03-06T06:25:33.609Z,3.88
2023-03-06T06:28:01.178Z,3.74
2023-03-06T06:30:28.793Z,3.69
2023-03-06T06:32:56.740Z,3.66
2023-03-06T06:35:24.423Z,3.67
2023-03-06T06:37:52.614Z,3.64
2023-03-06T06:40:22.905Z,3.65
2023-03-06T06:42:50.515Z,3.65
2023-03-06T06:45:18.206Z,3.64
2023-03-06T06:47:49.534Z,3.64
2023-03-06T06:50:17.140Z,3.64
2023-03-06T06:52:44.752Z,3.59
2023-03-06T06:55:13.184Z,3.63
2023-03-06T06:57:42.147Z,3.72
2023-03-06T07:00:13.493Z,3.69
2023-03-06T07:02:41.725Z,3.80
2023-03-06T07:05:09.786Z,3.78
2023-03-06T07:07:38.202Z,3.91
2023-03-06T07:10:14.707Z,3.98
2023-03-06T07:12:43.324Z,4.05
2023-03-06T07:15:14.128Z,4.07
2023-03-06T07:17:41.850Z,4.18
2023-03-06T07:20:10.644Z,4.26
2023-03-06T07:22:50.393Z,4.27
2023-03-06T07:25:19.292Z,4.30
2023-03-06T07:27:53.289Z,4.31
2023-03-06T07:30:23.307Z,4.40
2023-03-06T07:32:58.101Z,4.44
2023-03-06T07:35:26.467Z,4.47
2023-03-06T07:37:54.500Z,4.54
2023-03-06T07:40:23.835Z,4.57
2023-03-06T07:42:54.079Z,4.65
2023-03-06T07:45:25.158Z,4.69
2023-03-06T07:47:53.739Z,4.81
2023-03-06T07:50:21.911Z,4.88
2023-03-06T07:52:50.870Z,4.96
2023-03-06T07:55:18.653Z,5.07
2023-03-06T07:57:46.279Z,5.10
2023-03-06T08:00:15.739Z,5.23
2023-03-06T08:02:44.139Z,5.36
2023-03-06T08:05:14.857Z,5.48
2023-03-06T08:07:44.113Z,5.56
2023-03-06T08:10:15.989Z,5.56
2023-03-06T08:12:43.726Z,5.78
2023-03-06T08:15:12.131Z,5.83
2023-03-06T08:17:40.811Z,5.97
2023-03-06T08:20:10.487Z,5.99
2023-03-06T08:22:38.450Z,6.22
2023-03-06T08:25:06.887Z,6.53
2023-03-06T08:27:34.960Z,6.66
2023-03-06T08:30:03.151Z,6.93
2023-03-06T08:32:35.352Z,7.14
2023-03-06T08:35:04.711Z,7.23
2023-03-06T08:37:32.580Z,7.09
2023-03-06T08:40:00.157Z,7.12
2023-03-06T08:42:27.738Z,7.16
2023-03-06T08:44:55.578Z,7.14
2023-03-06T08:47:23.124Z,7.12
2023-03-06T08:49:50.823Z,7.24
2023-03-06T08:52:19.913Z,7.35
2023-03-06T08:54:47.455Z,7.32
2023-03-06T08:57:15.001Z,7.43
2023-03-06T08:59:42.942Z,7.39
2023-03-06T09:02:15.293Z,7.42
2023-03-06T09:04:43.480Z,7.40
2023-03-06T09:07:11.174Z,7.36
2023-03-06T09:09:38.826Z,7.31
2023-03-06T09:12:07.246Z,7.29
2023-03-06T09:14:34.778Z,7.28
2023-03-06T09:17:02.284Z,7.30
2023-03-06T09:19:30.139Z,7.93
2023-03-06T09:21:59.680Z,7.49
2023-03-06T09:24:28.032Z,7.50
2023-03-06T09:26:55.782Z,7.59
2023-03-06T09:29:23.363Z,7.64
2023-03-06T09:31:50.998Z,7.72
2023-03-06T09:34:19.634Z,7.70
2023-03-06T09:36:56.547Z,7.80
2023-03-06T09:39:26.271Z,7.93
2023-03-06T09:41:54.696Z,7.93
2023-03-06T09:44:28.944Z,8.00
2023-03-06T09:46:59.813Z,8.05
2023-03-06T09:49:49.021Z,8.09
2023-03-06T09:52:47.642Z,8.20
2023-03-06T09:55:18.886Z,8.41
2023-03-06T09:58:00.711Z,8.47
2023-03-06T10:00:30.304Z,8.61
2023-03-06T10:03:15.123Z,8.71
2023-03-06T10:05:47.588Z,8.79
2023-03-06T10:08:25.944Z,9.00
2023-03-06T10:11:06.605Z,9.07
2023-03-06T10:13:44.004Z,9.50
2023-03-06T10:16:21.925Z,9.90
2023-03-06T10:18:50.706Z,9.83
2023-03-06T10:21:57.400Z,9.90
2023-03-06T10:25:02.629Z,10.03
2023-03-06T10:27:59.533Z,10.35
2023-03-06T10:30:52.840Z,10.47
2023-03-06T10:33:42.097Z,10.25
2023-03-06T10:36:15.333Z,10.87
2023-03-06T10:38:44.931Z,11.08
2023-03-06T10:41:12.647Z,11.04
2023-03-06T10:43:45.020Z,11.08
2023-03-06T10:46:14.709Z,11.20
2023-03-06T10:48:42.864Z,11.04
2023-03-06T10:51:19.521Z,11.03
2023-03-06T10:53:53.564Z,11.05
2023-03-06T10:56:28.581Z,11.20
2023-03-06T10:59:17.153Z,11.06
2023-03-06T11:01:47.383Z,10.66
2023-03-06T11:04:16.334Z,11.00
2023-03-06T11:06:43.864Z,11.28
2023-03-06T11:09:29.466Z,11.25
2023-03-06T11:12:27.423Z,11.57
2023-03-06T11:15:08.352Z,11.64
2023-03-06T11:17:40.917Z,11.27
2023-03-06T11:20:14.954Z,11.00
2023-03-06T11:22:49.086Z,11.24
2023-03-06T11:25:21.825Z,11.28
2023-03-06T11:27:56.677Z,11.70
2023-03-06T11:30:28.983Z,11.58
2023-03-06T11:33:04.093Z,11.87
2023-03-06T11:35:41.471Z,11.73
2023-03-06T11:38:18.906Z,11.93
2023-03-06T11:40:55.002Z,11.62
2023-03-06T11:44:03.597Z,11.87
2023-03-06T11:46:41.077Z,11.83
2023-03-06T11:49:32.258Z,11.60
2023-03-06T11:52:13.069Z,11.88
2023-03-06T11:54:40.911Z,12.12
2023-03-06T11:57:15.789Z,12.29
2023-03-06T12:00:18.847Z,12.41
2023-03-06T12:03:09.463Z,12.18
2023-03-06T12:05:47.552Z,12.18
2023-03-06T12:08:54.434Z,12.01
2023-03-06T12:11:42.764Z,12.04
2023-03-06T12:14:37.118Z,11.91
2023-03-06T12:17:40.898Z,11.79
2023-03-06T12:20:36.049Z,11.62
2023-03-06T12:23:23.506Z,11.72
2023-03-06T12:25:54.617Z,11.61
2023-03-06T12:28:25.143Z,11.84
2023-03-06T12:31:17.988Z,11.92
2023-03-06T12:34:10.709Z,11.92
2023-03-06T12:36:55.066Z,12.06
2023-03-06T12:39:37.848Z,12.04
2023-03-06T12:42:23.873Z,12.38
2023-03-06T12:45:17.281Z,12.18
2023-03-06T12:47:51.474Z,12.51
2023-03-06T12:50:24.448Z,11.92
2023-03-06T12:52:54.209Z,11.99
2023-03-06T12:55:36.848Z,11.81
2023-03-06T12:58:29.214Z,12.00
2023-03-06T13:01:06.081Z,11.99
2023-03-06T13:04:01.438Z,12.05
2023-03-06T13:06:50.736Z,12.46
2023-03-06T13:09:58.897Z,12.69
2023-03-06T13:12:47.572Z,12.68
2023-03-06T13:15:31.643Z,12.61
2023-03-06T13:17:59.709Z,12.38
2023-03-06T13:20:35.366Z,11.83
2023-03-06T13:23:42.906Z,12.11
2023-03-06T13:26:24.433Z,11.84
2023-03-06T13:28:54.156Z,12.06
2023-03-06T13:31:27.934Z,11.92
2023-03-06T13:34:20.718Z,11.71
2023-03-06T13:36:48.709Z,11.81
2023-03-06T13:39:16.620Z,11.69
2023-03-06T13:41:54.971Z,11.21
2023-03-06T13:44:43.224Z,11.09
2023-03-06T13:50:47.750Z,11.22
2023-03-06T13:53:18.529Z,11.14
2023-03-06T13:55:55.292Z,10.79
2023-03-06T13:58:41.790Z,10.87
2023-03-06T14:01:26.269Z,10.70
2023-03-06T14:04:21.976Z,10.94
2023-03-06T14:06:53.704Z,10.78
2023-03-06T14:09:43.889Z,10.68
2023-03-06T14:12:24.725Z,10.79
2023-03-06T14:14:58.502Z,10.91
2023-03-06T14:17:30.545Z,10.86
2023-03-06T14:20:03.277Z,10.84
2023-03-06T14:22:31.358Z,11.01
2023-03-06T14:25:08.125Z,10.94
2023-03-06T14:27:49.636Z,10.93
2023-03-06T14:30:21.073Z,10.60
2023-03-06T14:32:53.439Z,10.50
2023-03-06T14:35:21.359Z,10.41
2023-03-06T14:37:53.199Z,10.44
2023-03-06T14:40:36.072Z,10.21
2023-03-06T14:43:33.207Z,10.02
2023-03-06T14:46:03.722Z,10.07
2023-03-06T14:48:45.593Z,9.78
2023-03-06T14:51:21.987Z,9.71
2023-03-06T14:53:50.909Z,9.61
2023-03-06T14:56:23.966Z,9.60
2023-03-06T14:59:01.711Z,9.40
2023-03-06T15:01:48.264Z,9.23
2023-03-06T15:04:27.453Z,9.06
2023-03-06T15:06:56.672Z,9.14
2023-03-06T15:09:27.726Z,9.03
2023-03-06T15:12:03.097Z,8.90
2023-03-06T15:14:35.194Z,8.75
2023-03-06T15:17:18.410Z,8.44
2023-03-06T15:19:48.650Z,8.41
2023-03-06T15:22:38.822Z,8.27
2023-03-06T15:25:31.990Z,8.33
2023-03-06T15:28:02.112Z,8.10
2023-03-06T15:30:32.846Z,8.13
2023-03-06T15:33:18.079Z,8.07
2023-03-06T15:35:57.162Z,8.00
2023-03-06T15:38:44.325Z,7.79
2023-03-06T15:41:30.901Z,7.56
2023-03-06T15:43:59.977Z,7.71
2023-03-06T15:46:28.372Z,7.58
2023-03-06T15:49:04.321Z,7.58
2023-03-06T15:51:33.103Z,7.60
2023-03-06T15:54:11.322Z,7.52
2023-03-06T15:56:45.088Z,7.71
2023-03-06T15:59:19.440Z,7.84
2023-03-06T16:01:47.896Z,7.78
2023-03-06T16:04:17.237Z,7.89
2023-03-06T16:06:45.904Z,8.01
2023-03-06T16:09:13.879Z,8.03
2023-03-06T16:11:44.843Z,8.10
2023-03-06T16:14:23.932Z,8.07
2023-03-06T16:16:54.255Z,7.74
2023-03-06T16:19:26.401Z,7.69
2023-03-06T16:21:56.158Z,7.77
2023-03-06T16:24:24.830Z,7.69
2023-03-06T16:26:53.580Z,7.79
2023-03-06T16:29:23.892Z,7.82
2023-03-06T16:31:51.908Z,7.84
2023-03-06T16:34:19.854Z,7.47
2023-03-06T16:36:49.057Z,7.53
2023-03-06T16:39:19.129Z,7.73
2023-03-06T16:41:47.199Z,7.46
2023-03-06T16:44:15.037Z,7.26
2023-03-06T16:46:47.713Z,7.29
2023-03-06T16:49:22.222Z,7.15
2023-03-06T16:51:50.224Z,7.07
2023-03-06T16:54:18.385Z,7.31
2023-03-06T16:56:46.925Z,7.37
2023-03-06T16:59:14.808Z,7.19
2023-03-06T17:01:45.439Z,7.00
2023-03-06T17:04:13.175Z,7.07
2023-03-06T17:06:41.958Z,7.20
2023-03-06T17:09:11.096Z,7.31
2023-03-06T17:11:39.317Z,7.39
2023-03-06T17:14:07.070Z,7.39
2023-03-06T17:16:37.095Z,7.34
2023-03-06T17:19:04.946Z,7.29
2023-03-06T17:21:35.351Z,7.20
2023-03-06T17:24:10.245Z,7.20
2023-03-06T17:26:38.812Z,7.20
2023-03-06T17:29:07.249Z,7.14
2023-03-06T17:31:35.119Z,7.11
2023-03-06T17:34:03.129Z,7.00
2023-03-06T17:36:31.885Z,6.94
2023-03-06T17:39:00.830Z,6.99
2023-03-06T17:41:29.714Z,6.98
2023-03-06T17:43:58.448Z,7.01
2023-03-06T17:46:26.332Z,7.05
2023-03-06T17:48:55.196Z,7.10
2023-03-06T17:51:23.366Z,7.22
2023-03-06T17:53:52.258Z,7.28
2023-03-06T17:56:20.123Z,7.32
2023-03-06T17:58:48.099Z,7.30
2023-03-06T18:01:19.551Z,7.37
2023-03-06T18:03:49.385Z,7.32
2023-03-06T18:06:18.130Z,7.29
2023-03-06T18:08:46.627Z,7.11
2023-03-06T18:11:15.606Z,7.22
2023-03-06T18:13:44.569Z,6.83
2023-03-06T18:16:15.390Z,6.96
2023-03-06T18:18:43.963Z,7.09
2023-03-06T18:21:14.058Z,6.92
2023-03-06T18:23:41.937Z,6.96
2023-03-06T18:26:12.711Z,6.96
2023-03-06T18:28:45.655Z,6.94
2023-03-06T18:31:21.754Z,6.95
2023-03-06T18:33:50.914Z,6.94
2023-03-06T18:36:19.152Z,7.00
2023-03-06T18:38:48.080Z,7.04
2023-03-06T18:41:17.209Z,7.10
2023-03-06T18:43:45.507Z,7.13
2023-03-06T18:46:13.126Z,7.12
2023-03-06T18:48:40.665Z,7.02
2023-03-06T18:51:10.517Z,7.03
2023-03-06T18:53:40.113Z,7.04
2023-03-06T18:56:10.780Z,7.10
2023-03-06T18:58:38.686Z,7.12
2023-03-06T19:01:07.389Z,7.09
2023-03-06T19:03:35.662Z,7.05
2023-03-06T19:06:09.173Z,6.85
2023-03-06T19:08:38.337Z,6.80
2023-03-06T19:11:11.374Z,6.74
2023-03-06T19:13:39.635Z,6.49
2023-03-06T19:16:08.213Z,6.71
2023-03-06T19:18:36.229Z,6.79
2023-03-06T19:21:12.674Z,6.80
2023-03-06T19:23:41.220Z,6.58
2023-03-06T19:26:10.405Z,6.58
2023-03-06T19:28:40.669Z,6.64
2023-03-06T19:31:19.509Z,6.58
2023-03-06T19:33:48.934Z,6.49
2023-03-06T19:36:18.499Z,6.48
2023-03-06T19:38:52.644Z,6.56
2023-03-06T19:41:21.616Z,6.52
2023-03-06T19:43:53.746Z,6.47
2023-03-06T19:46:22.451Z,6.47
2023-03-06T19:49:14.124Z,6.46
2023-03-06T19:51:42.231Z,6.43
2023-03-06T19:54:13.979Z,6.42
2023-03-06T19:56:42.514Z,6.44
2023-03-06T19:59:10.434Z,6.51
2023-03-06T20:01:39.674Z,6.53
2023-03-06T20:04:08.321Z,6.46
2023-03-06T20:06:37.689Z,6.43
2023-03-06T20:09:08.342Z,6.42
2023-03-06T20:11:36.461Z,6.34
2023-03-06T20:14:06.460Z,6.31
2023-03-06T20:16:35.040Z,6.22
2023-03-06T20:19:03.960Z,6.24
2023-03-06T20:21:35.310Z,6.30
2023-03-06T20:24:04.262Z,6.18
2023-03-06T20:26:34.149Z,6.18
2023-03-06T20:29:02.338Z,6.14
2023-03-06T20:31:30.935Z,6.17
2023-03-06T20:33:59.599Z,6.13
2023-03-06T20:36:36.246Z,6.19
2023-03-06T20:39:09.056Z,6.14
2023-03-06T20:41:37.114Z,6.07
2023-03-06T20:44:07.038Z,6.11
2023-03-06T20:46:35.522Z,6.17
2023-03-06T20:49:03.824Z,6.24
2023-03-06T20:51:36.159Z,6.26
2023-03-06T20:54:04.356Z,6.16
2023-03-06T20:56:34.005Z,6.25
2023-03-06T20:59:02.646Z,6.19
2023-03-06T21:01:33.223Z,6.29
2023-03-06T21:04:02.360Z,6.35
2023-03-06T21:06:30.708Z,6.28
2023-03-06T21:09:00.034Z,6.37
2023-03-06T21:11:28.472Z,6.39
2023-03-06T21:13:56.497Z,6.40
2023-03-06T21:16:25.877Z,6.26
2023-03-06T21:18:54.860Z,6.25
2023-03-06T21:21:25.535Z,6.16
2023-03-06T21:23:54.331Z,6.16
2023-03-06T21:26:24.337Z,6.05
2023-03-06T21:28:51.903Z,6.10
2023-03-06T21:31:20.767Z,6.14
2023-03-06T21:33:49.860Z,6.18
2023-03-06T21:36:19.334Z,6.24
2023-03-06T21:38:47.623Z,6.29
2023-03-06T21:41:20.165Z,6.18
2023-03-06T21:43:47.727Z,6.25
2023-03-06T21:46:15.638Z,6.12
2023-03-06T21:48:43.221Z,5.97
2023-03-06T21:51:19.128Z,5.92
2023-03-06T21:53:48.175Z,6.06
2023-03-06T21:56:17.594Z,6.07
2023-03-06T21:58:45.619Z,6.13
2023-03-06T22:01:17.679Z,6.11
2023-03-06T22:03:45.999Z,6.24
2023-03-06T22:06:16.382Z,6.26
2023-03-06T22:08:44.047Z,6.18
2023-03-06T22:11:15.387Z,6.04
2023-03-06T22:13:43.270Z,5.98
2023-03-06T22:16:11.409Z,6.00
2023-03-06T22:18:39.925Z,5.96
2023-03-06T22:21:12.398Z,5.88
2023-03-06T22:23:43.373Z,5.84
2023-03-06T22:26:14.362Z,5.87
2023-03-06T22:28:42.454Z,5.92
2023-03-06T22:31:12.649Z,5.89
2023-03-06T22:33:40.699Z,5.91
2023-03-06T22:36:10.920Z,6.02
2023-03-06T22:38:40.706Z,5.93
2023-03-06T22:41:09.367Z,5.93
2023-03-06T22:43:37.340Z,5.89
2023-03-06T22:46:07.830Z,5.84
2023-03-06T22:48:35.781Z,5.86
2023-03-06T22:51:07.733Z,5.91
2023-03-06T22:53:35.934Z,5.93
2023-03-06T22:56:05.535Z,5.88
2023-03-06T22:58:36.951Z,5.95
2023-03-06T23:01:06.149Z,5.94
2023-03-06T23:03:35.747Z,5.77
2023-03-06T23:06:08.816Z,5.76
2023-03-06T23:08:36.866Z,5.85
2023-03-06T23:11:12.039Z,5.84
2023-03-06T23:13:58.586Z,5.94
2023-03-06T23:16:44.637Z,6.00
2023-03-06T23:19:31.178Z,6.02
2023-03-06T23:22:17.229Z,6.13
2023-03-06T23:25:03.040Z,6.15
2023-03-06T23:27:30.884Z,6.20
2023-03-06T23:29:59.204Z,6.23
2023-03-06T23:32:26.864Z,6.25
2023-03-06T23:34:54.879Z,6.22
2023-03-06T23:37:22.479Z,6.26
2023-03-06T23:39:50.132Z,6.28
2023-03-06T23:42:18.023Z,6.31
2023-03-06T23:44:45.727Z,6.29
2023-03-06T23:47:13.265Z,6.31
2023-03-06T23:49:41.170Z,6.28
2023-03-06T23:52:08.847Z,6.15
2023-03-06T23:54:36.641Z,6.27
2023-03-06T23:57:04.405Z,6.30
2023-03-06T23:59:32.117Z,6.33
